sensor_id;sensor_type;location;lat;lon;timestamp;temperature;humidity
14475;DHT22;7323;50.848;4.334;2023-11-19T00:00:26;14.30;99.90
14475;DHT22;7323;50.848;4.334;2023-11-19T00:02:52;14.30;99.90
14475;DHT22;7323;50.848;4.334;2023-11-19T00:05:18;14.30;99.90
14475;DHT22;7323;50.848;4.334;2023-11-19T00:07:45;14.30;99.90
14475;DHT22;7323;50.848;4.334;2023-11-19T00:10:12;14.40;99.90
14475;DHT22;7323;50.848;4.334;2023-11-19T00:12:42;14.30;99.90
14475;DHT22;7323;50.848;4.334;2023-11-19T00:15:10;14.30;99.90
14475;DHT22;7323;50.848;4.334;2023-11-19T00:17:40;14.40;99.90
14475;DHT22;7323;50.848;4.334;2023-11-19T00:20:14;14.30;99.90
14475;DHT22;7323;50.848;4.334;2023-11-19T00:22:43;14.30;99.90
14475;DHT22;7323;50.848;4.334;2023-11-19T00:25:10;14.30;99.90
14475;DHT22;7323;50.848;4.334;2023-11-19T00:27:43;14.30;99.90
14475;DHT22;7323;50.848;4.334;2023-11-19T00:30:14;14.40;99.90
14475;DHT22;7323;50.848;4.334;2023-11-19T00:32:41;14.20;99.90
14475;DHT22;7323;50.848;4.334;2023-11-19T00:35:07;14.30;99.90
14475;DHT22;7323;50.848;4.334;2023-11-19T00:37:33;14.40;99.90
14475;DHT22;7323;50.848;4.334;2023-11-19T00:39:59;14.50;99.90
14475;DHT22;7323;50.848;4.334;2023-11-19T00:42:25;14.40;99.90
14475;DHT22;7323;50.848;4.334;2023-11-19T00:44:51;14.40;99.90
14475;DHT22;7323;50.848;4.334;2023-11-19T00:47:17;14.40;99.90
14475;DHT22;7323;50.848;4.334;2023-11-19T00:49:49;14.40;99.90
14475;DHT22;7323;50.848;4.334;2023-11-19T00:52:18;14.40;99.90
14475;DHT22;7323;50.848;4.334;2023-11-19T00:54:44;14.40;99.90
14475;DHT22;7323;50.848;4.334;2023-11-19T00:57:10;14.40;99.90
14475;DHT22;7323;50.848;4.334;2023-11-19T00:59:41;14.50;99.90
14475;DHT22;7323;50.848;4.334;2023-11-19T01:02:12;14.50;99.90
14475;DHT22;7323;50.848;4.334;2023-11-19T01:04:40;14.50;99.90
14475;DHT22;7323;50.848;4.334;2023-11-19T01:07:09;14.60;99.90
14475;DHT22;7323;50.848;4.334;2023-11-19T01:09:41;14.60;99.90
14475;DHT22;7323;50.848;4.334;2023-11-19T01:12:11;14.60;99.90
14475;DHT22;7323;50.848;4.334;2023-11-19T01:14:42;14.60;99.90
14475;DHT22;7323;50.848;4.334;2023-11-19T01:17:09;14.60;99.90
14475;DHT22;7323;50.848;4.334;2023-11-19T01:19:35;14.60;99.90
14475;DHT22;7323;50.848;4.334;2023-11-19T01:22:01;14.60;99.90
14475;DHT22;7323;50.848;4.334;2023-11-19T01:24:48;14.60;99.90
14475;DHT22;7323;50.848;4.334;2023-11-19T01:27:14;14.70;99.90
14475;DHT22;7323;50.848;4.334;2023-11-19T01:29:40;14.80;99.90
14475;DHT22;7323;50.848;4.334;2023-11-19T01:32:09;14.70;99.90
14475;DHT22;7323;50.848;4.334;2023-11-19T01:34:35;14.80;99.90
14475;DHT22;7323;50.848;4.334;2023-11-19T01:37:01;14.70;99.90
14475;DHT22;7323;50.848;4.334;2023-11-19T01:39:27;14.60;99.90
14475;DHT22;7323;50.848;4.334;2023-11-19T01:41:54;14.50;99.90
14475;DHT22;7323;50.848;4.334;2023-11-19T01:44:21;14.40;99.90
14475;DHT22;7323;50.848;4.334;2023-11-19T01:46:52;14.40;99.90
14475;DHT22;7323;50.848;4.334;2023-11-19T01:49:19;14.50;99.90
14475;DHT22;7323;50.848;4.334;2023-11-19T01:51:47;14.50;99.90
14475;DHT22;7323;50.848;4.334;2023-11-19T01:54:15;14.40;99.90
14475;DHT22;7323;50.848;4.334;2023-11-19T01:56:44;14.50;99.90
14475;DHT22;7323;50.848;4.334;2023-11-19T01:59:10;14.60;99.90
14475;DHT22;7323;50.848;4.334;2023-11-19T02:01:40;14.60;99.90
14475;DHT22;7323;50.848;4.334;2023-11-19T02:04:09;14.60;99.90
14475;DHT22;7323;50.848;4.334;2023-11-19T02:06:44;14.70;99.90
14475;DHT22;7323;50.848;4.334;2023-11-19T02:09:11;14.50;99.90
14475;DHT22;7323;50.848;4.334;2023-11-19T02:11:56;14.50;99.90
14475;DHT22;7323;50.848;4.334;2023-11-19T02:14:26;14.50;99.90
14475;DHT22;7323;50.848;4.334;2023-11-19T02:16:54;14.50;99.90
14475;DHT22;7323;50.848;4.334;2023-11-19T02:19:22;14.40;99.90
14475;DHT22;7323;50.848;4.334;2023-11-19T02:21:52;14.50;99.90
14475;DHT22;7323;50.848;4.334;2023-11-19T02:24:20;14.50;99.90
14475;DHT22;7323;50.848;4.334;2023-11-19T02:27:23;14.40;99.90
14475;DHT22;7323;50.848;4.334;2023-11-19T02:29:49;14.30;99.90
14475;DHT22;7323;50.848;4.334;2023-11-19T02:32:16;14.40;99.90
14475;DHT22;7323;50.848;4.334;2023-11-19T02:34:42;14.40;99.90
14475;DHT22;7323;50.848;4.334;2023-11-19T02:37:07;14.30;99.90
14475;DHT22;7323;50.848;4.334;2023-11-19T02:39:33;14.20;99.90
14475;DHT22;7323;50.848;4.334;2023-11-19T02:41:59;14.30;99.90
14475;DHT22;7323;50.848;4.334;2023-11-19T02:44:26;14.30;99.90
14475;DHT22;7323;50.848;4.334;2023-11-19T02:46:55;14.40;99.90
14475;DHT22;7323;50.848;4.334;2023-11-19T02:49:21;14.40;99.90
14475;DHT22;7323;50.848;4.334;2023-11-19T02:51:47;14.40;99.90
14475;DHT22;7323;50.848;4.334;2023-11-19T02:54:14;14.40;99.90
14475;DHT22;7323;50.848;4.334;2023-11-19T02:56:42;14.40;99.90
14475;DHT22;7323;50.848;4.334;2023-11-19T02:59:08;14.40;99.90
14475;DHT22;7323;50.848;4.334;2023-11-19T03:01:37;14.40;99.90
14475;DHT22;7323;50.848;4.334;2023-11-19T03:04:04;14.40;99.90
14475;DHT22;7323;50.848;4.334;2023-11-19T03:06:30;14.20;99.90
14475;DHT22;7323;50.848;4.334;2023-11-19T03:08:56;14.30;99.90
14475;DHT22;7323;50.848;4.334;2023-11-19T03:11:24;14.10;99.90
14475;DHT22;7323;50.848;4.334;2023-11-19T03:13:50;14.10;99.90
14475;DHT22;7323;50.848;4.334;2023-11-19T03:16:15;14.00;99.90
14475;DHT22;7323;50.848;4.334;2023-11-19T03:18:42;14.00;99.90
14475;DHT22;7323;50.848;4.334;2023-11-19T03:21:09;13.90;99.90
14475;DHT22;7323;50.848;4.334;2023-11-19T03:23:34;13.80;99.90
14475;DHT22;7323;50.848;4.334;2023-11-19T03:26:01;13.80;99.90
14475;DHT22;7323;50.848;4.334;2023-11-19T03:28:29;13.80;99.90
14475;DHT22;7323;50.848;4.334;2023-11-19T03:30:56;13.80;99.90
14475;DHT22;7323;50.848;4.334;2023-11-19T03:33:21;13.80;99.90
14475;DHT22;7323;50.848;4.334;2023-11-19T03:35:48;13.80;99.90
14475;DHT22;7323;50.848;4.334;2023-11-19T03:38:14;13.90;99.90
14475;DHT22;7323;50.848;4.334;2023-11-19T03:40:40;13.80;99.90
14475;DHT22;7323;50.848;4.334;2023-11-19T03:43:06;13.80;99.90
14475;DHT22;7323;50.848;4.334;2023-11-19T03:45:31;13.80;99.90
14475;DHT22;7323;50.848;4.334;2023-11-19T03:47:58;13.70;99.90
14475;DHT22;7323;50.848;4.334;2023-11-19T03:50:24;13.60;99.90
14475;DHT22;7323;50.848;4.334;2023-11-19T03:52:50;13.60;99.90
14475;DHT22;7323;50.848;4.334;2023-11-19T03:55:16;13.60;99.90
14475;DHT22;7323;50.848;4.334;2023-11-19T03:57:42;13.70;99.90
14475;DHT22;7323;50.848;4.334;2023-11-19T04:00:08;13.60;99.90
14475;DHT22;7323;50.848;4.334;2023-11-19T04:02:39;13.60;99.90
14475;DHT22;7323;50.848;4.334;2023-11-19T04:05:05;13.60;99.90
14475;DHT22;7323;50.848;4.334;2023-11-19T04:07:32;13.60;99.90
14475;DHT22;7323;50.848;4.334;2023-11-19T04:09:58;13.70;99.90
14475;DHT22;7323;50.848;4.334;2023-11-19T04:12:26;13.60;99.90
14475;DHT22;7323;50.848;4.334;2023-11-19T04:14:53;13.50;99.90
14475;DHT22;7323;50.848;4.334;2023-11-19T04:17:21;13.50;99.90
14475;DHT22;7323;50.848;4.334;2023-11-19T04:19:46;13.40;99.90
14475;DHT22;7323;50.848;4.334;2023-11-19T04:22:12;13.60;99.90
14475;DHT22;7323;50.848;4.334;2023-11-19T04:24:39;13.50;99.90
14475;DHT22;7323;50.848;4.334;2023-11-19T04:27:06;13.40;99.90
14475;DHT22;7323;50.848;4.334;2023-11-19T04:29:32;13.40;99.90
14475;DHT22;7323;50.848;4.334;2023-11-19T04:32:01;13.40;99.90
14475;DHT22;7323;50.848;4.334;2023-11-19T04:34:27;13.50;99.90
14475;DHT22;7323;50.848;4.334;2023-11-19T04:36:52;13.50;99.90
14475;DHT22;7323;50.848;4.334;2023-11-19T04:39:18;13.60;99.90
14475;DHT22;7323;50.848;4.334;2023-11-19T04:41:57;13.50;99.90
14475;DHT22;7323;50.848;4.334;2023-11-19T04:44:23;13.50;99.90
14475;DHT22;7323;50.848;4.334;2023-11-19T04:46:55;13.50;99.90
14475;DHT22;7323;50.848;4.334;2023-11-19T04:49:21;13.60;99.90
14475;DHT22;7323;50.848;4.334;2023-11-19T04:52:08;13.50;99.90
14475;DHT22;7323;50.848;4.334;2023-11-19T04:54:43;13.60;99.90
14475;DHT22;7323;50.848;4.334;2023-11-19T04:57:40;13.50;99.90
14475;DHT22;7323;50.848;4.334;2023-11-19T05:00:08;13.50;99.90
14475;DHT22;7323;50.848;4.334;2023-11-19T05:02:38;13.50;99.90
14475;DHT22;7323;50.848;4.334;2023-11-19T05:05:07;13.50;99.90
14475;DHT22;7323;50.848;4.334;2023-11-19T05:07:54;13.50;99.90
14475;DHT22;7323;50.848;4.334;2023-11-19T05:10:23;13.50;99.90
14475;DHT22;7323;50.848;4.334;2023-11-19T05:13:19;13.40;99.90
14475;DHT22;7323;50.848;4.334;2023-11-19T05:15:47;13.30;99.90
14475;DHT22;7323;50.848;4.334;2023-11-19T05:18:16;13.30;99.90
14475;DHT22;7323;50.848;4.334;2023-11-19T05:20:48;13.30;99.90
14475;DHT22;7323;50.848;4.334;2023-11-19T05:23:15;13.40;99.90
14475;DHT22;7323;50.848;4.334;2023-11-19T05:25:46;13.40;99.90
14475;DHT22;7323;50.848;4.334;2023-11-19T05:28:13;13.20;99.90
14475;DHT22;7323;50.848;4.334;2023-11-19T05:30:39;13.20;99.90
14475;DHT22;7323;50.848;4.334;2023-11-19T05:33:06;13.10;99.90
14475;DHT22;7323;50.848;4.334;2023-11-19T05:35:34;13.10;99.90
14475;DHT22;7323;50.848;4.334;2023-11-19T05:38:00;13.30;99.90
14475;DHT22;7323;50.848;4.334;2023-11-19T05:40:27;13.30;99.90
14475;DHT22;7323;50.848;4.334;2023-11-19T05:42:56;13.20;99.90
14475;DHT22;7323;50.848;4.334;2023-11-19T05:45:22;13.30;99.90
14475;DHT22;7323;50.848;4.334;2023-11-19T05:47:51;13.30;99.90
14475;DHT22;7323;50.848;4.334;2023-11-19T05:50:18;13.30;99.90
14475;DHT22;7323;50.848;4.334;2023-11-19T05:52:44;13.30;99.90
14475;DHT22;7323;50.848;4.334;2023-11-19T05:55:09;13.30;99.90
14475;DHT22;7323;50.848;4.334;2023-11-19T05:57:37;13.20;99.90
14475;DHT22;7323;50.848;4.334;2023-11-19T06:00:03;13.20;99.90
14475;DHT22;7323;50.848;4.334;2023-11-19T06:02:35;13.20;99.90
14475;DHT22;7323;50.848;4.334;2023-11-19T06:05:03;13.10;99.90
14475;DHT22;7323;50.848;4.334;2023-11-19T06:07:33;13.10;99.90
14475;DHT22;7323;50.848;4.334;2023-11-19T06:09:59;13.30;99.90
14475;DHT22;7323;50.848;4.334;2023-11-19T06:12:26;13.20;99.90
14475;DHT22;7323;50.848;4.334;2023-11-19T06:14:53;13.10;99.90
14475;DHT22;7323;50.848;4.334;2023-11-19T06:17:18;12.90;99.90
14475;DHT22;7323;50.848;4.334;2023-11-19T06:19:45;12.90;99.90
14475;DHT22;7323;50.848;4.334;2023-11-19T06:22:11;12.90;99.90
14475;DHT22;7323;50.848;4.334;2023-11-19T06:24:42;12.90;99.90
14475;DHT22;7323;50.848;4.334;2023-11-19T06:27:08;12.90;99.90
14475;DHT22;7323;50.848;4.334;2023-11-19T06:29:34;12.70;99.90
14475;DHT22;7323;50.848;4.334;2023-11-19T06:32:00;12.70;99.90
14475;DHT22;7323;50.848;4.334;2023-11-19T06:34:26;12.60;99.90
14475;DHT22;7323;50.848;4.334;2023-11-19T06:36:51;12.70;99.90
14475;DHT22;7323;50.848;4.334;2023-11-19T06:39:18;12.70;99.90
14475;DHT22;7323;50.848;4.334;2023-11-19T06:41:47;12.60;99.90
14475;DHT22;7323;50.848;4.334;2023-11-19T06:44:13;12.60;99.90
14475;DHT22;7323;50.848;4.334;2023-11-19T06:46:40;12.50;99.90
14475;DHT22;7323;50.848;4.334;2023-11-19T06:49:06;12.50;99.90
14475;DHT22;7323;50.848;4.334;2023-11-19T06:51:35;12.50;99.90
14475;DHT22;7323;50.848;4.334;2023-11-19T06:54:02;12.40;99.90
14475;DHT22;7323;50.848;4.334;2023-11-19T06:56:29;12.30;99.90
14475;DHT22;7323;50.848;4.334;2023-11-19T06:58:55;12.40;99.90
14475;DHT22;7323;50.848;4.334;2023-11-19T07:01:21;12.50;99.90
14475;DHT22;7323;50.848;4.334;2023-11-19T07:03:47;12.40;99.90
14475;DHT22;7323;50.848;4.334;2023-11-19T07:06:13;12.40;99.90
14475;DHT22;7323;50.848;4.334;2023-11-19T07:08:41;12.40;99.90
14475;DHT22;7323;50.848;4.334;2023-11-19T07:11:09;12.30;99.90
14475;DHT22;7323;50.848;4.334;2023-11-19T07:13:35;12.40;99.90
14475;DHT22;7323;50.848;4.334;2023-11-19T07:16:03;12.40;99.90
14475;DHT22;7323;50.848;4.334;2023-11-19T07:18:30;12.50;99.90
14475;DHT22;7323;50.848;4.334;2023-11-19T07:20:59;12.50;99.90
14475;DHT22;7323;50.848;4.334;2023-11-19T07:23:25;12.40;99.90
14475;DHT22;7323;50.848;4.334;2023-11-19T07:25:51;12.40;99.90
14475;DHT22;7323;50.848;4.334;2023-11-19T07:28:19;12.40;99.90
14475;DHT22;7323;50.848;4.334;2023-11-19T07:30:44;12.40;99.90
14475;DHT22;7323;50.848;4.334;2023-11-19T07:33:11;12.40;99.90
14475;DHT22;7323;50.848;4.334;2023-11-19T07:35:42;12.40;99.90
14475;DHT22;7323;50.848;4.334;2023-11-19T07:38:10;12.30;99.90
14475;DHT22;7323;50.848;4.334;2023-11-19T07:40:36;12.40;99.90
14475;DHT22;7323;50.848;4.334;2023-11-19T07:43:02;12.50;99.90
14475;DHT22;7323;50.848;4.334;2023-11-19T07:45:28;12.40;99.90
14475;DHT22;7323;50.848;4.334;2023-11-19T07:48:23;12.50;99.90
14475;DHT22;7323;50.848;4.334;2023-11-19T07:50:50;12.40;99.90
14475;DHT22;7323;50.848;4.334;2023-11-19T07:53:21;12.50;99.90
14475;DHT22;7323;50.848;4.334;2023-11-19T07:55:47;12.40;99.90
14475;DHT22;7323;50.848;4.334;2023-11-19T07:58:13;12.40;99.90
14475;DHT22;7323;50.848;4.334;2023-11-19T08:00:39;12.50;99.90
14475;DHT22;7323;50.848;4.334;2023-11-19T08:03:06;12.50;99.90
14475;DHT22;7323;50.848;4.334;2023-11-19T08:05:31;12.50;99.90
14475;DHT22;7323;50.848;4.334;2023-11-19T08:07:58;12.50;99.90
14475;DHT22;7323;50.848;4.334;2023-11-19T08:10:29;12.50;99.90
14475;DHT22;7323;50.848;4.334;2023-11-19T08:12:55;12.60;99.90
14475;DHT22;7323;50.848;4.334;2023-11-19T08:15:24;12.70;99.90
14475;DHT22;7323;50.848;4.334;2023-11-19T08:17:52;12.70;99.90
14475;DHT22;7323;50.848;4.334;2023-11-19T08:20:27;12.70;99.90
14475;DHT22;7323;50.848;4.334;2023-11-19T08:22:57;12.70;99.90
14475;DHT22;7323;50.848;4.334;2023-11-19T08:25:25;12.70;99.90
14475;DHT22;7323;50.848;4.334;2023-11-19T08:28:22;12.70;99.90
14475;DHT22;7323;50.848;4.334;2023-11-19T08:31:11;12.80;99.90
14475;DHT22;7323;50.848;4.334;2023-11-19T08:33:38;12.90;99.90
14475;DHT22;7323;50.848;4.334;2023-11-19T08:36:07;12.90;99.90
14475;DHT22;7323;50.848;4.334;2023-11-19T08:38:47;13.00;99.90
14475;DHT22;7323;50.848;4.334;2023-11-19T08:41:36;13.00;99.90
14475;DHT22;7323;50.848;4.334;2023-11-19T08:44:05;13.10;99.90
14475;DHT22;7323;50.848;4.334;2023-11-19T08:46:31;12.80;99.90
14475;DHT22;7323;50.848;4.334;2023-11-19T08:48:57;12.70;99.90
14475;DHT22;7323;50.848;4.334;2023-11-19T08:51:25;12.70;99.90
14475;DHT22;7323;50.848;4.334;2023-11-19T08:53:51;12.80;99.90
14475;DHT22;7323;50.848;4.334;2023-11-19T08:56:18;12.70;99.90
14475;DHT22;7323;50.848;4.334;2023-11-19T08:58:43;12.90;99.90
14475;DHT22;7323;50.848;4.334;2023-11-19T09:01:10;13.00;99.90
14475;DHT22;7323;50.848;4.334;2023-11-19T09:03:36;12.90;99.90
14475;DHT22;7323;50.848;4.334;2023-11-19T09:06:02;13.00;99.90
14475;DHT22;7323;50.848;4.334;2023-11-19T09:08:28;13.00;99.90
14475;DHT22;7323;50.848;4.334;2023-11-19T09:10:55;13.00;99.90
14475;DHT22;7323;50.848;4.334;2023-11-19T09:13:22;13.00;99.90
14475;DHT22;7323;50.848;4.334;2023-11-19T09:15:54;13.20;99.90
14475;DHT22;7323;50.848;4.334;2023-11-19T09:18:42;13.40;99.90
14475;DHT22;7323;50.848;4.334;2023-11-19T09:21:10;13.30;99.90
14475;DHT22;7323;50.848;4.334;2023-11-19T09:23:53;13.40;99.90
14475;DHT22;7323;50.848;4.334;2023-11-19T09:26:19;13.40;99.90
14475;DHT22;7323;50.848;4.334;2023-11-19T09:28:45;13.30;99.90
14475;DHT22;7323;50.848;4.334;2023-11-19T09:31:18;13.30;99.90
14475;DHT22;7323;50.848;4.334;2023-11-19T09:33:44;13.30;99.90
14475;DHT22;7323;50.848;4.334;2023-11-19T09:36:14;13.40;99.90
14475;DHT22;7323;50.848;4.334;2023-11-19T09:38:40;13.30;99.90
14475;DHT22;7323;50.848;4.334;2023-11-19T09:41:06;13.30;99.90
14475;DHT22;7323;50.848;4.334;2023-11-19T09:43:35;13.40;99.90
14475;DHT22;7323;50.848;4.334;2023-11-19T09:46:09;13.50;99.90
14475;DHT22;7323;50.848;4.334;2023-11-19T09:48:38;13.60;99.90
14475;DHT22;7323;50.848;4.334;2023-11-19T09:51:09;13.60;99.90
14475;DHT22;7323;50.848;4.334;2023-11-19T09:53:38;13.50;99.90
14475;DHT22;7323;50.848;4.334;2023-11-19T09:56:05;13.60;99.90
14475;DHT22;7323;50.848;4.334;2023-11-19T09:58:32;13.60;99.90
14475;DHT22;7323;50.848;4.334;2023-11-19T10:00:58;13.70;99.90
14475;DHT22;7323;50.848;4.334;2023-11-19T10:03:36;13.70;99.90
14475;DHT22;7323;50.848;4.334;2023-11-19T10:06:08;13.80;99.90
14475;DHT22;7323;50.848;4.334;2023-11-19T10:08:39;13.80;99.90
14475;DHT22;7323;50.848;4.334;2023-11-19T10:11:19;14.00;99.90
14475;DHT22;7323;50.848;4.334;2023-11-19T10:13:46;13.80;99.90
14475;DHT22;7323;50.848;4.334;2023-11-19T10:16:13;13.80;99.90
14475;DHT22;7323;50.848;4.334;2023-11-19T10:18:49;13.70;99.90
14475;DHT22;7323;50.848;4.334;2023-11-19T10:21:21;13.80;99.90
14475;DHT22;7323;50.848;4.334;2023-11-19T10:23:57;13.80;99.90
14475;DHT22;7323;50.848;4.334;2023-11-19T10:26:42;13.80;99.90
14475;DHT22;7323;50.848;4.334;2023-11-19T10:29:13;13.80;99.90
14475;DHT22;7323;50.848;4.334;2023-11-19T10:31:40;13.90;99.90
14475;DHT22;7323;50.848;4.334;2023-11-19T10:34:24;14.00;99.90
14475;DHT22;7323;50.848;4.334;2023-11-19T10:36:50;14.00;99.90
14475;DHT22;7323;50.848;4.334;2023-11-19T10:39:16;13.90;99.90
14475;DHT22;7323;50.848;4.334;2023-11-19T10:41:42;14.00;99.90
14475;DHT22;7323;50.848;4.334;2023-11-19T10:44:09;14.10;99.90
14475;DHT22;7323;50.848;4.334;2023-11-19T10:46:42;13.90;99.90
14475;DHT22;7323;50.848;4.334;2023-11-19T10:49:09;13.90;99.90
14475;DHT22;7323;50.848;4.334;2023-11-19T10:51:44;14.00;99.90
14475;DHT22;7323;50.848;4.334;2023-11-19T10:54:13;13.90;99.90
14475;DHT22;7323;50.848;4.334;2023-11-19T10:56:43;13.90;99.90
14475;DHT22;7323;50.848;4.334;2023-11-19T10:59:11;14.10;99.90
14475;DHT22;7323;50.848;4.334;2023-11-19T11:01:44;14.10;99.90
14475;DHT22;7323;50.848;4.334;2023-11-19T11:04:14;14.10;99.90
14475;DHT22;7323;50.848;4.334;2023-11-19T11:06:41;14.20;99.90
14475;DHT22;7323;50.848;4.334;2023-11-19T11:09:07;14.30;99.90
14475;DHT22;7323;50.848;4.334;2023-11-19T11:11:39;14.30;99.90
14475;DHT22;7323;50.848;4.334;2023-11-19T11:14:13;14.30;99.90
14475;DHT22;7323;50.848;4.334;2023-11-19T11:16:46;14.20;99.90
14475;DHT22;7323;50.848;4.334;2023-11-19T11:19:15;14.10;99.90
14475;DHT22;7323;50.848;4.334;2023-11-19T11:21:50;14.00;99.90
14475;DHT22;7323;50.848;4.334;2023-11-19T11:24:56;13.90;99.90
14475;DHT22;7323;50.848;4.334;2023-11-19T11:27:49;13.70;99.90
14475;DHT22;7323;50.848;4.334;2023-11-19T11:33:40;13.60;99.90
14475;DHT22;7323;50.848;4.334;2023-11-19T11:36:11;13.60;99.90
14475;DHT22;7323;50.848;4.334;2023-11-19T11:38:48;13.50;99.90
14475;DHT22;7323;50.848;4.334;2023-11-19T11:41:21;13.60;99.90
14475;DHT22;7323;50.848;4.334;2023-11-19T11:43:54;13.80;99.90
14475;DHT22;7323;50.848;4.334;2023-11-19T11:49:03;14.10;99.90
14475;DHT22;7323;50.848;4.334;2023-11-19T11:54:26;14.40;99.90
14475;DHT22;7323;50.848;4.334;2023-11-19T11:57:10;14.60;99.90
14475;DHT22;7323;50.848;4.334;2023-11-19T11:59:49;14.80;99.90
14475;DHT22;7323;50.848;4.334;2023-11-19T12:02:18;14.80;99.90
14475;DHT22;7323;50.848;4.334;2023-11-19T12:04:48;14.90;99.90
14475;DHT22;7323;50.848;4.334;2023-11-19T12:07:17;14.80;99.90
14475;DHT22;7323;50.848;4.334;2023-11-19T12:09:48;14.60;99.90
14475;DHT22;7323;50.848;4.334;2023-11-19T12:15:13;14.50;99.90
14475;DHT22;7323;50.848;4.334;2023-11-19T12:17:47;14.40;99.90
14475;DHT22;7323;50.848;4.334;2023-11-19T12:20:20;14.20;99.90
14475;DHT22;7323;50.848;4.334;2023-11-19T12:23:12;14.20;99.90
14475;DHT22;7323;50.848;4.334;2023-11-19T12:25:39;14.10;99.90
14475;DHT22;7323;50.848;4.334;2023-11-19T12:28:11;14.00;99.90
14475;DHT22;7323;50.848;4.334;2023-11-19T12:30:37;13.80;99.90
14475;DHT22;7323;50.848;4.334;2023-11-19T12:33:08;13.80;99.90
14475;DHT22;7323;50.848;4.334;2023-11-19T12:35:39;13.80;99.90
14475;DHT22;7323;50.848;4.334;2023-11-19T12:38:05;13.70;99.90
14475;DHT22;7323;50.848;4.334;2023-11-19T12:40:31;13.70;99.90
14475;DHT22;7323;50.848;4.334;2023-11-19T12:42:57;13.70;99.90
14475;DHT22;7323;50.848;4.334;2023-11-19T12:45:24;13.70;99.90
14475;DHT22;7323;50.848;4.334;2023-11-19T12:47:50;13.70;99.90
14475;DHT22;7323;50.848;4.334;2023-11-19T12:50:29;13.80;99.90
14475;DHT22;7323;50.848;4.334;2023-11-19T12:52:58;13.90;99.90
14475;DHT22;7323;50.848;4.334;2023-11-19T12:55:26;13.90;99.90
14475;DHT22;7323;50.848;4.334;2023-11-19T12:58:03;13.90;99.90
14475;DHT22;7323;50.848;4.334;2023-11-19T13:00:31;13.80;99.90
14475;DHT22;7323;50.848;4.334;2023-11-19T13:02:57;13.90;99.90
14475;DHT22;7323;50.848;4.334;2023-11-19T13:05:33;13.90;99.90
14475;DHT22;7323;50.848;4.334;2023-11-19T13:08:09;13.90;99.90
14475;DHT22;7323;50.848;4.334;2023-11-19T13:10:53;14.00;99.90
14475;DHT22;7323;50.848;4.334;2023-11-19T13:13:20;13.90;99.90
14475;DHT22;7323;50.848;4.334;2023-11-19T13:15:46;13.80;99.90
14475;DHT22;7323;50.848;4.334;2023-11-19T13:18:13;13.90;99.90
14475;DHT22;7323;50.848;4.334;2023-11-19T13:20:44;13.90;99.90
14475;DHT22;7323;50.848;4.334;2023-11-19T13:23:12;14.00;99.90
14475;DHT22;7323;50.848;4.334;2023-11-19T13:25:40;13.90;99.90
14475;DHT22;7323;50.848;4.334;2023-11-19T13:28:07;13.90;99.90
14475;DHT22;7323;50.848;4.334;2023-11-19T13:30:36;13.90;99.90
14475;DHT22;7323;50.848;4.334;2023-11-19T13:33:07;13.90;99.90
14475;DHT22;7323;50.848;4.334;2023-11-19T13:35:36;13.80;99.90
14475;DHT22;7323;50.848;4.334;2023-11-19T13:38:04;13.90;99.90
14475;DHT22;7323;50.848;4.334;2023-11-19T13:40:29;13.80;99.90
14475;DHT22;7323;50.848;4.334;2023-11-19T13:42:55;13.90;99.90
14475;DHT22;7323;50.848;4.334;2023-11-19T13:45:21;13.80;99.90
14475;DHT22;7323;50.848;4.334;2023-11-19T13:48:28;13.60;99.90
14475;DHT22;7323;50.848;4.334;2023-11-19T13:51:39;13.60;99.90
14475;DHT22;7323;50.848;4.334;2023-11-19T13:54:04;13.60;99.90
14475;DHT22;7323;50.848;4.334;2023-11-19T13:56:30;13.60;99.90
14475;DHT22;7323;50.848;4.334;2023-11-19T13:59:00;13.60;99.90
14475;DHT22;7323;50.848;4.334;2023-11-19T14:01:26;13.60;99.90
14475;DHT22;7323;50.848;4.334;2023-11-19T14:04:13;13.60;99.90
14475;DHT22;7323;50.848;4.334;2023-11-19T14:07:00;13.60;99.90
14475;DHT22;7323;50.848;4.334;2023-11-19T14:09:26;13.60;99.90
14475;DHT22;7323;50.848;4.334;2023-11-19T14:11:53;13.70;99.90
14475;DHT22;7323;50.848;4.334;2023-11-19T14:14:18;13.70;99.90
14475;DHT22;7323;50.848;4.334;2023-11-19T14:16:44;13.70;99.90
14475;DHT22;7323;50.848;4.334;2023-11-19T14:19:10;13.70;99.90
14475;DHT22;7323;50.848;4.334;2023-11-19T14:21:36;13.60;99.90
14475;DHT22;7323;50.848;4.334;2023-11-19T14:24:02;13.70;99.90
14475;DHT22;7323;50.848;4.334;2023-11-19T14:26:28;13.60;99.90
14475;DHT22;7323;50.848;4.334;2023-11-19T14:28:54;13.70;99.90
14475;DHT22;7323;50.848;4.334;2023-11-19T14:31:33;13.60;99.90
14475;DHT22;7323;50.848;4.334;2023-11-19T14:33:59;13.60;99.90
14475;DHT22;7323;50.848;4.334;2023-11-19T14:36:29;13.50;99.90
14475;DHT22;7323;50.848;4.334;2023-11-19T14:38:54;13.40;99.90
14475;DHT22;7323;50.848;4.334;2023-11-19T14:41:20;13.30;99.90
14475;DHT22;7323;50.848;4.334;2023-11-19T14:43:52;13.30;99.90
14475;DHT22;7323;50.848;4.334;2023-11-19T14:46:38;13.30;99.90
14475;DHT22;7323;50.848;4.334;2023-11-19T14:49:05;13.40;99.90
14475;DHT22;7323;50.848;4.334;2023-11-19T14:51:51;13.40;99.90
14475;DHT22;7323;50.848;4.334;2023-11-19T14:54:25;13.30;99.90
14475;DHT22;7323;50.848;4.334;2023-11-19T14:57:01;13.40;99.90
14475;DHT22;7323;50.848;4.334;2023-11-19T14:59:29;13.60;99.90
14475;DHT22;7323;50.848;4.334;2023-11-19T15:01:57;13.40;99.90
14475;DHT22;7323;50.848;4.334;2023-11-19T15:04:26;13.40;99.90
14475;DHT22;7323;50.848;4.334;2023-11-19T15:07:15;13.30;99.90
14475;DHT22;7323;50.848;4.334;2023-11-19T15:09:40;13.40;99.90
14475;DHT22;7323;50.848;4.334;2023-11-19T15:12:06;13.40;99.90
14475;DHT22;7323;50.848;4.334;2023-11-19T15:14:33;13.40;99.90
14475;DHT22;7323;50.848;4.334;2023-11-19T15:16:59;13.30;99.90
14475;DHT22;7323;50.848;4.334;2023-11-19T15:19:30;13.40;99.90
14475;DHT22;7323;50.848;4.334;2023-11-19T15:21:59;13.40;99.90
14475;DHT22;7323;50.848;4.334;2023-11-19T15:24:47;13.30;99.90
14475;DHT22;7323;50.848;4.334;2023-11-19T15:27:17;13.50;99.90
14475;DHT22;7323;50.848;4.334;2023-11-19T15:29:46;13.40;99.90
14475;DHT22;7323;50.848;4.334;2023-11-19T15:32:12;13.40;99.90
14475;DHT22;7323;50.848;4.334;2023-11-19T15:34:37;13.40;99.90
14475;DHT22;7323;50.848;4.334;2023-11-19T15:37:08;13.50;99.90
14475;DHT22;7323;50.848;4.334;2023-11-19T15:39:38;13.50;99.90
14475;DHT22;7323;50.848;4.334;2023-11-19T15:42:04;13.60;99.90
14475;DHT22;7323;50.848;4.334;2023-11-19T15:44:31;13.60;99.90
14475;DHT22;7323;50.848;4.334;2023-11-19T15:46:58;13.70;99.90
14475;DHT22;7323;50.848;4.334;2023-11-19T15:49:24;13.60;99.90
14475;DHT22;7323;50.848;4.334;2023-11-19T15:51:50;13.70;99.90
14475;DHT22;7323;50.848;4.334;2023-11-19T15:54:20;13.70;99.90
14475;DHT22;7323;50.848;4.334;2023-11-19T15:56:50;13.70;99.90
14475;DHT22;7323;50.848;4.334;2023-11-19T15:59:17;13.60;99.90
14475;DHT22;7323;50.848;4.334;2023-11-19T16:01:43;13.60;99.90
14475;DHT22;7323;50.848;4.334;2023-11-19T16:04:10;13.50;99.90
14475;DHT22;7323;50.848;4.334;2023-11-19T16:06:38;13.40;99.90
14475;DHT22;7323;50.848;4.334;2023-11-19T16:09:03;13.50;99.90
14475;DHT22;7323;50.848;4.334;2023-11-19T16:11:29;13.40;99.90